CZVL weather

Edmonton / Villeneuve Airport
Edmonton, Alberta, Canada

Public forecast

Using degrees Celsius for public forecast. Weather courtesy of forecast.io.

Current aviation weather report (METAR) for Edmonton / Villeneuve Airport

Retrieved 2020/04/09 23:00 UTC (31 minutes ago):

CZVL 092300Z AUTO 20010KT 9SM OVC110 07/M00 A2982 RMK SLP126

Aviation forecast (TAF) for Edmonton / Villeneuve Airport

Retrieved 2020/04/09 18:00 UTC (6 hours ago):

TAF CZVL 091747Z 0918/1006 21006KT P6SM BKN070 OVC160 FM100200 30005KT P6SM FEW020 BKN040 TEMPO 1002/1006 5SM -SHRA BR SCT020 OVC040 RMK FCST BASED ON AUTO OBS NXT FCST BY 100000Z